Time;durP1;ratioP1;P1;durP2;ratioP2;P2;SDS_P1;SDS_P2;PMS_P1;PMS_P2;Temp;Humidity;BMP_temperature;BMP_pressure;BME280_temperature;BME280_humidity;BME280_pressure;Samples;Min_cycle;Max_cycle;Signal;HPM_P1;HPM_P2
2022/11/28 00:00:51;;;;;;;44.95;21.85;;;;;;;;;;5079046;28;20439;-80
2022/11/28 00:03:17;;;;;;;49.15;22.20;;;;;;;;;;5059856;28;20048;-80
2022/11/28 00:05:42;;;;;;;42.65;20.92;;;;;;;;;;5085759;28;20112;-80
2022/11/28 00:08:08;;;;;;;49.13;22.35;;;;;;;;;;5080763;28;20029;-80
2022/11/28 00:10:36;;;;;;;44.83;20.55;;;;;;;;;;5080871;28;20036;-80
2022/11/28 00:13:02;;;;;;;48.25;22.77;;;;;;;;;;5078029;28;20042;-80
2022/11/28 00:15:27;;;;;;;44.28;20.95;;;;;;;;;;5097012;28;20111;-80
2022/11/28 00:17:53;;;;;;;44.88;21.92;;;;;;;;;;5096973;28;20032;-80
2022/11/28 00:20:18;;;;;;;44.10;20.88;;;;;;;;;;5083803;28;20545;-80
2022/11/28 00:22:44;;;;;;;45.17;20.58;;;;;;;;;;5092971;28;20590;-80
2022/11/28 00:25:09;;;;;;;44.15;21.83;;;;;;;;;;5076330;28;20044;-80
2022/11/28 00:27:35;;;;;;;43.75;21.08;;;;;;;;;;5087668;28;20044;-80
2022/11/28 00:30:01;;;;;;;47.30;21.13;;;;;;;;;;5042948;28;20035;-81
2022/11/28 00:32:26;;;;;;;44.50;21.60;;;;;;;;;;5077501;28;20052;-80
2022/11/28 00:34:52;;;;;;;40.85;20.55;;;;;;;;;;5078233;28;20028;-80
2022/11/28 00:37:17;;;;;;;46.15;21.52;;;;;;;;;;5063358;28;20042;-81
2022/11/28 00:39:43;;;;;;;45.78;21.67;;;;;;;;;;5080664;28;20095;-80
2022/11/28 00:42:08;;;;;;;43.35;21.90;;;;;;;;;;5075538;28;20123;-80
2022/11/28 00:44:34;;;;;;;49.70;23.73;;;;;;;;;;5077647;28;20036;-80
2022/11/28 00:46:59;;;;;;;43.45;21.80;;;;;;;;;;5068293;28;20036;-80
2022/11/28 00:49:25;;;;;;;42.20;20.67;;;;;;;;;;5068239;28;20064;-80
2022/11/28 00:51:50;;;;;;;43.40;21.77;;;;;;;;;;5077980;28;20032;-81
2022/11/28 00:54:16;;;;;;;50.67;23.40;;;;;;;;;;5085150;28;20035;-80
2022/11/28 00:56:41;;;;;;;52.10;23.02;;;;;;;;;;5092074;28;20051;-81
2022/11/28 00:59:07;;;;;;;50.38;24.48;;;;;;;;;;5084624;28;20062;-81
2022/11/28 01:01:42;;;;;;;45.33;22.67;;;;;;;;;;5072638;28;20032;-80
2022/11/28 01:04:09;;;;;;;47.85;24.30;;;;;;;;;;5060856;28;20192;-80
2022/11/28 01:06:38;;;;;;;50.20;23.77;;;;;;;;;;5056036;28;20053;-80
2022/11/28 01:09:11;;;;;;;53.22;24.85;;;;;;;;;;5082738;28;20036;-80
2022/11/28 01:11:37;;;;;;;51.33;24.73;;;;;;;;;;5093111;28;20040;-80
2022/11/28 01:14:03;;;;;;;;;;;;;;;;;;5065642;28;20471;-80
2022/11/28 01:16:28;;;;;;;45.47;22.30;;;;;;;;;;5072699;28;19911;-80
2022/11/28 01:18:54;;;;;;;45.97;23.75;;;;;;;;;;5051462;28;20033;-80
2022/11/28 01:21:19;;;;;;;42.55;21.38;;;;;;;;;;5070500;28;20036;-80
2022/11/28 01:23:45;;;;;;;43.10;22.35;;;;;;;;;;5075105;28;20047;-80
2022/11/28 01:26:11;;;;;;;44.17;22.10;;;;;;;;;;5073661;28;20046;-80
2022/11/28 01:28:36;;;;;;;;;;;;;;;;;;5063254;28;20031;-80
2022/11/28 01:31:05;;;;;;;45.53;21.42;;;;;;;;;;5077048;28;20883;-80
2022/11/28 01:33:30;;;;;;;44.47;21.63;;;;;;;;;;5090160;28;20054;-80
2022/11/28 01:35:56;;;;;;;41.03;21.35;;;;;;;;;;5081658;28;20028;-80
2022/11/28 01:38:22;;;;;;;42.25;20.42;;;;;;;;;;5079981;28;20031;-80
2022/11/28 01:40:47;;;;;;;39.90;21.92;;;;;;;;;;5081337;28;20074;-81
2022/11/28 01:43:13;;;;;;;40.60;20.80;;;;;;;;;;5058547;28;20376;-80
2022/11/28 01:45:39;;;;;;;45.05;22.65;;;;;;;;;;5080902;28;20032;-80
2022/11/28 01:48:04;;;;;;;43.80;23.05;;;;;;;;;;5043477;28;20114;-80
2022/11/28 01:50:30;;;;;;;41.97;21.75;;;;;;;;;;5061898;28;20040;-80
2022/11/28 01:52:56;;;;;;;43.00;22.60;;;;;;;;;;5080496;28;20040;-80
2022/11/28 01:55:23;;;;;;;40.42;21.42;;;;;;;;;;5078673;28;20024;-80
2022/11/28 01:57:48;;;;;;;36.70;20.90;;;;;;;;;;5042234;28;20023;-80
2022/11/28 02:00:15;;;;;;;35.97;20.40;;;;;;;;;;5053948;28;20407;-80
2022/11/28 02:02:42;;;;;;;35.28;20.05;;;;;;;;;;5073429;28;20082;-80
2022/11/28 02:05:08;;;;;;;38.50;21.27;;;;;;;;;;5051724;28;20063;-80
2022/11/28 02:07:34;;;;;;;35.97;21.15;;;;;;;;;;5067216;28;20066;-80
2022/11/28 02:10:00;;;;;;;35.33;19.95;;;;;;;;;;5068741;28;20036;-80
2022/11/28 02:12:25;;;;;;;;;;;;;;;;;;5041339;28;20040;-80
2022/11/28 02:14:54;;;;;;;37.35;19.83;;;;;;;;;;5084967;28;20406;-80
2022/11/28 02:17:28;;;;;;;34.05;19.00;;;;;;;;;;5059301;28;20882;-81
2022/11/28 02:20:12;;;;;;;32.95;19.80;;;;;;;;;;5058962;28;20479;-80
2022/11/28 02:22:56;;;;;;;35.38;20.85;;;;;;;;;;5077954;28;20040;-80
2022/11/28 02:25:40;;;;;;;33.45;20.08;;;;;;;;;;5077844;28;20028;-81
2022/11/28 02:28:25;;;;;;;32.53;18.02;;;;;;;;;;5064302;28;20040;-81
2022/11/28 02:30:57;;;;;;;32.33;18.00;;;;;;;;;;5073363;28;20032;-81
2022/11/28 02:33:30;;;;;;;34.15;19.23;;;;;;;;;;5080455;28;20040;-81
2022/11/28 02:36:09;;;;;;;33.30;18.17;;;;;;;;;;5048048;28;20047;-81
2022/11/28 02:38:38;;;;;;;33.65;18.92;;;;;;;;;;5063353;28;20044;-81
2022/11/28 02:41:03;;;;;;;35.15;18.50;;;;;;;;;;5066413;28;20035;-81
2022/11/28 02:43:43;;;;;;;30.77;17.63;;;;;;;;;;5062004;28;20024;-79
2022/11/28 02:46:13;;;;;;;31.67;18.70;;;;;;;;;;5060984;28;20090;-81
2022/11/28 02:48:54;;;;;;;31.52;18.75;;;;;;;;;;5061565;28;20020;-80
2022/11/28 02:51:29;;;;;;;31.77;16.75;;;;;;;;;;5059891;28;20032;-80
2022/11/28 02:53:55;;;;;;;28.10;16.15;;;;;;;;;;5046562;28;20041;-81
2022/11/28 02:56:21;;;;;;;30.00;16.88;;;;;;;;;;5062786;28;20028;-80
2022/11/28 02:58:47;;;;;;;30.70;16.90;;;;;;;;;;5058472;28;20033;-81
2022/11/28 03:01:16;;;;;;;30.65;17.13;;;;;;;;;;5058817;28;20046;-81
2022/11/28 03:03:47;;;;;;;33.33;17.17;;;;;;;;;;5033795;28;20060;-81
2022/11/28 03:06:16;;;;;;;28.52;16.58;;;;;;;;;;5067097;28;20036;-81
2022/11/28 03:08:42;;;;;;;29.38;16.40;;;;;;;;;;5093403;28;20039;-81
2022/11/28 03:11:16;;;;;;;27.63;15.82;;;;;;;;;;5083517;28;20036;-81
2022/11/28 03:13:48;;;;;;;25.60;15.20;;;;;;;;;;5073804;28;20036;-81
2022/11/28 03:16:19;;;;;;;25.88;14.48;;;;;;;;;;5084124;28;20035;-81
2022/11/28 03:18:55;;;;;;;21.63;13.25;;;;;;;;;;5093190;28;20028;-80
2022/11/28 03:21:43;;;;;;;21.48;12.75;;;;;;;;;;5057280;28;20047;-81
2022/11/28 03:24:11;;;;;;;19.10;11.32;;;;;;;;;;5067722;28;20037;-81
2022/11/28 03:26:56;;;;;;;16.15;10.25;;;;;;;;;;5069813;28;20039;-81
2022/11/28 03:29:28;;;;;;;19.17;10.90;;;;;;;;;;5065373;28;20505;-81
2022/11/28 03:31:58;;;;;;;17.20;10.90;;;;;;;;;;5048887;28;20051;-82
2022/11/28 03:34:25;;;;;;;16.83;10.55;;;;;;;;;;5083701;28;20040;-81
2022/11/28 03:37:02;;;;;;;16.15;9.98;;;;;;;;;;5040516;28;20040;-81
2022/11/28 03:39:29;;;;;;;15.65;9.90;;;;;;;;;;5070448;28;20036;-80
2022/11/28 03:41:58;;;;;;;17.45;10.02;;;;;;;;;;5050875;28;20035;-81
2022/11/28 03:44:29;;;;;;;18.38;10.82;;;;;;;;;;5067979;28;20499;-81
2022/11/28 03:46:55;;;;;;;16.83;10.63;;;;;;;;;;5083045;28;20076;-80
2022/11/28 03:49:28;;;;;;;16.70;10.93;;;;;;;;;;5081474;28;20552;-81
2022/11/28 03:51:55;;;;;;;18.95;11.73;;;;;;;;;;5066637;28;20032;-81
2022/11/28 03:54:22;;;;;;;19.95;11.25;;;;;;;;;;5066011;28;20028;-80
2022/11/28 03:57:05;;;;;;;22.92;14.57;;;;;;;;;;5055209;28;20119;-82
2022/11/28 03:59:32;;;;;;;23.40;14.73;;;;;;;;;;5076353;28;20064;-82
2022/11/28 04:02:02;;;;;;;19.80;12.25;;;;;;;;;;5077878;28;20438;-82
2022/11/28 04:04:27;;;;;;;22.77;12.93;;;;;;;;;;5060106;28;20068;-81
2022/11/28 04:06:54;;;;;;;23.52;12.25;;;;;;;;;;5058961;28;20041;-81
2022/11/28 04:09:41;;;;;;;21.92;12.82;;;;;;;;;;5064792;28;20037;-81
2022/11/28 04:12:13;;;;;;;21.87;12.83;;;;;;;;;;5061633;28;20518;-84
2022/11/28 04:14:41;;;;;;;25.90;13.35;;;;;;;;;;5040866;28;20025;-82
2022/11/28 04:17:11;;;;;;;23.00;12.10;;;;;;;;;;5077621;28;20526;-82
2022/11/28 04:19:39;;;;;;;22.52;12.52;;;;;;;;;;5056898;28;20040;-82
2022/11/28 04:22:16;;;;;;;22.92;12.18;;;;;;;;;;5059694;28;20036;-81
2022/11/28 04:24:50;;;;;;;21.05;11.63;;;;;;;;;;5076679;28;20032;-81
2022/11/28 04:27:17;;;;;;;19.70;11.65;;;;;;;;;;5058750;28;20036;-80
2022/11/28 04:29:44;;;;;;;42.97;25.75;;;;;;;;;;5075813;28;20052;-81
2022/11/28 04:32:09;;;;;;;21.42;12.98;;;;;;;;;;5068629;28;20024;-81
2022/11/28 04:34:35;;;;;;;20.55;11.98;;;;;;;;;;5089345;28;20039;-80
2022/11/28 04:37:00;;;;;;;20.27;11.85;;;;;;;;;;5077234;28;20041;-81
2022/11/28 04:39:26;;;;;;;22.23;12.68;;;;;;;;;;5078399;28;20484;-81
2022/11/28 04:41:52;;;;;;;24.15;13.55;;;;;;;;;;5082360;28;20042;-81
2022/11/28 04:44:18;;;;;;;;;;;;;;;;;;5049716;28;20042;-81
2022/11/28 04:46:46;;;;;;;20.17;11.23;;;;;;;;;;5084408;28;19916;-81
2022/11/28 04:49:11;;;;;;;20.27;11.50;;;;;;;;;;5083507;28;20027;-82
2022/11/28 04:51:42;;;;;;;21.27;12.07;;;;;;;;;;5048903;28;20087;-81
2022/11/28 04:54:34;;;;;;;20.38;11.43;;;;;;;;;;5059838;28;20489;-81
2022/11/28 04:57:16;;;;;;;17.10;10.80;;;;;;;;;;5058806;28;20120;-81
2022/11/28 04:59:42;;;;;;;22.08;11.27;;;;;;;;;;5075278;28;20052;-79
2022/11/28 05:02:07;;;;;;;21.65;12.50;;;;;;;;;;5053210;28;20063;-81
2022/11/28 05:04:36;;;;;;;22.40;12.23;;;;;;;;;;5041865;28;20052;-81
2022/11/28 05:07:02;;;;;;;21.13;11.52;;;;;;;;;;5043487;28;20039;-81
2022/11/28 05:09:27;;;;;;;;;;;;;;;;;;5046949;28;20260;-82
2022/11/28 05:11:53;;;;;;;22.35;11.57;;;;;;;;;;5064488;28;19987;-81
2022/11/28 05:14:19;;;;;;;21.20;12.65;;;;;;;;;;5049040;28;20343;-80
2022/11/28 05:16:44;;;;;;;22.42;12.70;;;;;;;;;;5069362;28;20036;-80
2022/11/28 05:19:10;;;;;;;19.95;11.38;;;;;;;;;;5056787;28;20123;-80
2022/11/28 05:21:35;;;;;;;22.75;11.48;;;;;;;;;;5061633;28;20032;-81
2022/11/28 05:24:01;;;;;;;22.15;11.27;;;;;;;;;;5042257;28;20106;-81
2022/11/28 05:26:30;;;;;;;21.38;11.52;;;;;;;;;;5058093;28;20119;-81
2022/11/28 05:28:56;;;;;;;21.38;11.93;;;;;;;;;;5018506;28;20123;-82
2022/11/28 05:31:22;;;;;;;23.48;12.05;;;;;;;;;;5037723;28;20120;-82
2022/11/28 05:33:47;;;;;;;20.75;11.25;;;;;;;;;;5041839;28;20475;-83
2022/11/28 05:36:13;;;;;;;21.27;11.02;;;;;;;;;;5057745;28;20070;-81
2022/11/28 05:38:38;;;;;;;18.27;10.57;;;;;;;;;;5039378;28;20407;-81
2022/11/28 05:41:04;;;;;;;23.27;13.85;;;;;;;;;;5040226;28;20020;-81
2022/11/28 05:43:29;;;;;;;22.92;11.50;;;;;;;;;;5056836;28;20055;-81
2022/11/28 05:45:55;;;;;;;20.48;11.00;;;;;;;;;;5056839;28;20169;-81
2022/11/28 05:48:21;;;;;;;;;;;;;;;;;;5037212;28;20381;-82
2022/11/28 05:50:49;;;;;;;17.60;10.60;;;;;;;;;;5055037;28;19915;-82
2022/11/28 05:53:40;;;;;;;21.42;11.75;;;;;;;;;;5069086;28;20564;-82
2022/11/28 05:56:06;;;;;;;18.02;10.20;;;;;;;;;;5057360;28;20123;-81
2022/11/28 05:58:32;;;;;;;17.95;11.13;;;;;;;;;;5053335;28;20028;-81
2022/11/28 06:00:57;;;;;;;20.05;10.98;;;;;;;;;;5057205;28;20137;-81
2022/11/28 06:03:23;;;;;;;19.55;11.05;;;;;;;;;;5054002;28;20048;-82
2022/11/28 06:05:48;;;;;;;18.73;11.15;;;;;;;;;;5055845;28;20036;-81
2022/11/28 06:08:14;;;;;;;20.73;11.13;;;;;;;;;;5061432;28;20433;-81
2022/11/28 06:10:41;;;;;;;19.15;10.73;;;;;;;;;;5053518;28;20048;-82
2022/11/28 06:13:07;;;;;;;19.95;11.13;;;;;;;;;;5081345;28;20111;-81
2022/11/28 06:15:33;;;;;;;17.92;10.68;;;;;;;;;;5048062;28;20060;-82
2022/11/28 06:17:58;;;;;;;17.92;10.20;;;;;;;;;;5060674;28;20036;-80
2022/11/28 06:20:24;;;;;;;17.05;9.20;;;;;;;;;;5069198;28;20028;-80
2022/11/28 06:22:49;;;;;;;18.90;10.68;;;;;;;;;;5054350;28;20023;-80
2022/11/28 06:25:15;;;;;;;20.67;10.90;;;;;;;;;;5074363;28;20078;-81
2022/11/28 06:27:40;;;;;;;18.00;9.73;;;;;;;;;;5060087;28;20558;-80
2022/11/28 06:30:06;;;;;;;19.15;10.68;;;;;;;;;;5051500;28;20036;-82
2022/11/28 06:32:31;;;;;;;17.80;10.05;;;;;;;;;;5040966;28;20051;-81
2022/11/28 06:34:57;;;;;;;17.65;10.40;;;;;;;;;;5065592;28;20040;-82
2022/11/28 06:37:22;;;;;;;17.45;11.00;;;;;;;;;;5050226;28;20098;-81
2022/11/28 06:39:50;;;;;;;20.08;10.45;;;;;;;;;;5063707;28;20084;-81
2022/11/28 06:42:15;;;;;;;17.23;9.80;;;;;;;;;;5063673;28;20059;-83
2022/11/28 06:44:41;;;;;;;19.60;9.82;;;;;;;;;;5046423;28;20570;-82
2022/11/28 06:47:06;;;;;;;19.42;11.70;;;;;;;;;;5080211;28;20502;-82
2022/11/28 06:49:32;;;;;;;17.90;10.23;;;;;;;;;;5046927;28;20428;-81
2022/11/28 06:51:57;;;;;;;17.90;9.98;;;;;;;;;;5063493;28;20035;-82
2022/11/28 06:54:23;;;;;;;19.77;10.73;;;;;;;;;;5063883;28;20028;-83
2022/11/28 06:56:49;;;;;;;16.52;10.45;;;;;;;;;;5046999;28;20506;-81
2022/11/28 06:59:14;;;;;;;18.65;10.05;;;;;;;;;;5073603;28;20040;-80
2022/11/28 07:01:40;;;;;;;16.23;9.80;;;;;;;;;;5028856;28;20032;-82
2022/11/28 07:04:05;;;;;;;16.92;9.98;;;;;;;;;;5062953;28;20052;-82
2022/11/28 07:06:31;;;;;;;25.33;15.50;;;;;;;;;;5057523;28;20036;-82
2022/11/28 07:08:56;;;;;;;25.65;13.50;;;;;;;;;;5046921;28;20040;-81
2022/11/28 07:11:23;;;;;;;19.00;10.88;;;;;;;;;;5059535;28;20012;-80
2022/11/28 07:13:48;;;;;;;17.90;10.88;;;;;;;;;;5068917;28;20028;-80
2022/11/28 07:16:18;;;;;;;18.77;11.35;;;;;;;;;;5071304;28;20450;-82
2022/11/28 07:18:43;;;;;;;19.35;10.98;;;;;;;;;;5068405;28;20036;-81
2022/11/28 07:21:09;;;;;;;16.63;10.90;;;;;;;;;;5042859;28;20031;-82
2022/11/28 07:23:35;;;;;;;20.67;10.73;;;;;;;;;;5039773;28;20549;-80
2022/11/28 07:26:01;;;;;;;19.42;11.35;;;;;;;;;;5069475;28;20028;-82
2022/11/28 07:28:26;;;;;;;;;;;;;;;;;;5067554;28;20035;-81
2022/11/28 07:31:01;;;;;;;20.70;11.75;;;;;;;;;;5081000;28;19961;-82
2022/11/28 07:33:27;;;;;;;18.13;12.00;;;;;;;;;;5045896;28;20059;-82
2022/11/28 07:35:52;;;;;;;20.90;11.90;;;;;;;;;;5087162;28;20056;-82
2022/11/28 07:38:18;;;;;;;22.13;11.82;;;;;;;;;;5048605;28;20078;-82
2022/11/28 07:40:43;;;;;;;19.17;11.55;;;;;;;;;;5052212;28;20027;-82
2022/11/28 07:43:09;;;;;;;19.40;11.88;;;;;;;;;;5064805;28;20040;-81
2022/11/28 07:45:37;;;;;;;21.63;12.52;;;;;;;;;;5079304;28;20557;-83
2022/11/28 07:48:03;;;;;;;23.05;13.23;;;;;;;;;;5061724;28;20039;-82
2022/11/28 07:50:28;;;;;;;21.55;12.95;;;;;;;;;;5059323;28;20430;-81
2022/11/28 07:52:54;;;;;;;23.63;13.85;;;;;;;;;;5046831;28;20495;-82
2022/11/28 07:55:19;;;;;;;21.58;12.50;;;;;;;;;;5082348;28;20024;-82
2022/11/28 07:57:45;;;;;;;28.38;16.98;;;;;;;;;;5081883;28;20090;-81
2022/11/28 08:00:10;;;;;;;21.80;12.07;;;;;;;;;;5069304;28;20539;-81
2022/11/28 08:02:37;;;;;;;19.50;11.68;;;;;;;;;;5083956;28;20036;-84
2022/11/28 08:05:03;;;;;;;17.02;10.32;;;;;;;;;;5052601;28;20060;-81
2022/11/28 08:07:29;;;;;;;31.38;19.77;;;;;;;;;;5055955;28;20112;-81
2022/11/28 08:09:54;;;;;;;20.73;12.90;;;;;;;;;;5055066;28;20040;-81
2022/11/28 08:12:20;;;;;;;18.95;11.95;;;;;;;;;;5056021;28;20024;-83
2022/11/28 08:14:45;;;;;;;19.00;11.43;;;;;;;;;;5072924;28;20073;-83
2022/11/28 08:17:11;;;;;;;20.15;12.23;;;;;;;;;;5046015;28;20045;-81
2022/11/28 08:19:36;;;;;;;17.42;11.43;;;;;;;;;;5052615;28;20028;-82
2022/11/28 08:22:02;;;;;;;18.42;11.13;;;;;;;;;;5049866;28;20513;-81
2022/11/28 08:24:27;;;;;;;18.58;11.45;;;;;;;;;;5078599;28;20490;-82
2022/11/28 08:26:52;;;;;;;17.20;10.95;;;;;;;;;;5030639;28;20082;-82
2022/11/28 08:29:18;;;;;;;15.23;9.63;;;;;;;;;;5042121;28;20035;-82
2022/11/28 08:31:43;;;;;;;15.18;9.35;;;;;;;;;;5082398;28;20466;-81
2022/11/28 08:34:09;;;;;;;16.30;9.35;;;;;;;;;;5065801;28;20115;-81
2022/11/28 08:36:35;;;;;;;18.48;10.63;;;;;;;;;;5064598;28;20068;-83
2022/11/28 08:39:01;;;;;;;18.52;11.65;;;;;;;;;;5042367;28;20495;-82
2022/11/28 08:41:26;;;;;;;19.67;10.88;;;;;;;;;;5046725;28;20033;-82
2022/11/28 08:43:52;;;;;;;18.60;9.55;;;;;;;;;;5072078;28;20032;-81
2022/11/28 08:46:19;;;;;;;14.40;8.82;;;;;;;;;;5072136;28;20044;-82
2022/11/28 08:48:44;;;;;;;14.95;8.63;;;;;;;;;;5072058;28;20032;-82
2022/11/28 08:51:13;;;;;;;14.95;9.15;;;;;;;;;;5080861;28;20474;-81
2022/11/28 08:53:38;;;;;;;15.45;8.85;;;;;;;;;;5070947;28;20033;-82
2022/11/28 08:56:04;;;;;;;16.50;9.70;;;;;;;;;;5073751;28;20037;-82
2022/11/28 08:58:29;;;;;;;16.95;9.20;;;;;;;;;;5067956;28;20029;-82
2022/11/28 09:00:55;;;;;;;16.63;9.27;;;;;;;;;;5054006;28;20037;-82
2022/11/28 09:03:21;;;;;;;16.30;9.95;;;;;;;;;;5058207;28;20534;-82
2022/11/28 09:05:46;;;;;;;16.25;10.80;;;;;;;;;;5059326;28;20860;-82
2022/11/28 09:08:16;;;;;;;18.52;9.95;;;;;;;;;;5037914;28;20360;-82
2022/11/28 09:10:42;;;;;;;15.00;9.05;;;;;;;;;;5070116;28;20028;-82
2022/11/28 09:13:08;;;;;;;19.52;10.25;;;;;;;;;;5075652;28;20443;-83
2022/11/28 09:15:33;;;;;;;14.77;9.13;;;;;;;;;;5058656;28;20078;-82
2022/11/28 09:17:59;;;;;;;16.02;8.63;;;;;;;;;;5054337;28;20399;-82
2022/11/28 09:20:25;;;;;;;14.07;8.57;;;;;;;;;;5061500;28;20047;-81
2022/11/28 09:22:50;;;;;;;18.42;9.88;;;;;;;;;;5074503;28;20106;-79
2022/11/28 09:25:16;;;;;;;17.98;9.95;;;;;;;;;;5074811;28;20045;-82
2022/11/28 09:27:41;;;;;;;21.67;10.50;;;;;;;;;;5070504;28;20075;-82
2022/11/28 09:30:07;;;;;;;18.95;9.50;;;;;;;;;;5071241;28;20123;-84
2022/11/28 09:32:32;;;;;;;17.95;9.38;;;;;;;;;;5064819;28;20029;-80
2022/11/28 09:34:58;;;;;;;15.63;9.65;;;;;;;;;;5071716;28;20094;-80
2022/11/28 09:37:23;;;;;;;18.50;10.00;;;;;;;;;;5046637;28;20503;-83
2022/11/28 09:39:49;;;;;;;21.23;10.45;;;;;;;;;;5056517;28;20484;-83
2022/11/28 09:42:15;;;;;;;;;;;;;;;;;;5083622;28;20059;-81
2022/11/28 09:44:41;;;;;;;20.77;9.68;;;;;;;;;;5073056;28;19954;-81
2022/11/28 09:47:26;;;;;;;20.75;11.07;;;;;;;;;;5035364;28;20056;-81
2022/11/28 09:49:53;;;;;;;15.95;9.77;;;;;;;;;;5061080;28;20027;-81
2022/11/28 09:52:37;;;;;;;18.75;10.43;;;;;;;;;;5072028;28;20047;-82
2022/11/28 09:55:03;;;;;;;19.13;11.18;;;;;;;;;;5070016;28;20622;-81
2022/11/28 09:57:33;;;;;;;21.55;11.18;;;;;;;;;;5072128;28;20115;-80
2022/11/28 09:59:59;;;;;;;20.85;10.50;;;;;;;;;;5058779;28;20039;-82
2022/11/28 10:02:26;;;;;;;19.55;11.43;;;;;;;;;;5071520;28;20036;-82
2022/11/28 10:04:58;;;;;;;21.58;11.63;;;;;;;;;;5053697;28;20065;-82
2022/11/28 10:07:26;;;;;;;20.73;11.90;;;;;;;;;;5038038;28;20036;-81
2022/11/28 10:09:52;;;;;;;20.35;11.35;;;;;;;;;;5060424;28;20027;-82
2022/11/28 10:12:23;;;;;;;22.95;12.65;;;;;;;;;;5057591;28;20036;-82
2022/11/28 10:14:52;;;;;;;22.85;12.70;;;;;;;;;;5068276;28;20115;-82
2022/11/28 10:17:17;;;;;;;20.00;11.63;;;;;;;;;;5084515;28;20104;-81
2022/11/28 10:19:45;;;;;;;26.80;14.00;;;;;;;;;;5077784;28;20469;-82
2022/11/28 10:22:12;;;;;;;23.58;12.25;;;;;;;;;;5069782;28;20082;-82
2022/11/28 10:24:40;;;;;;;24.70;12.60;;;;;;;;;;5053892;28;20035;-82
2022/11/28 10:27:05;;;;;;;22.92;12.98;;;;;;;;;;5048942;28;20046;-82
2022/11/28 10:29:36;;;;;;;25.30;13.50;;;;;;;;;;5086126;28;20397;-82
2022/11/28 10:32:02;;;;;;;24.90;13.13;;;;;;;;;;5072808;28;20029;-82
2022/11/28 10:34:46;;;;;;;30.33;15.65;;;;;;;;;;5079860;28;20372;-82
2022/11/28 10:37:19;;;;;;;26.23;13.85;;;;;;;;;;5063664;28;20040;-82
2022/11/28 10:39:45;;;;;;;24.13;12.85;;;;;;;;;;5084757;28;20450;-82
2022/11/28 10:42:13;;;;;;;24.48;14.00;;;;;;;;;;5065438;28;20073;-82
2022/11/28 10:44:39;;;;;;;27.50;14.90;;;;;;;;;;5075387;28;20059;-82
2022/11/28 10:47:19;;;;;;;28.30;14.05;;;;;;;;;;5079298;28;20478;-81
2022/11/28 10:49:53;;;;;;;26.15;13.70;;;;;;;;;;5028305;28;20535;-82
2022/11/28 10:52:31;;;;;;;27.50;14.75;;;;;;;;;;5057535;28;20074;-82
2022/11/28 10:55:06;;;;;;;25.15;13.55;;;;;;;;;;5073592;28;20377;-82
2022/11/28 10:57:38;;;;;;;24.98;13.48;;;;;;;;;;5053614;28;20064;-82
2022/11/28 11:00:13;;;;;;;29.92;14.65;;;;;;;;;;5070606;28;20123;-82
2022/11/28 11:02:39;;;;;;;28.63;15.30;;;;;;;;;;5018554;28;20044;-83
2022/11/28 11:05:04;;;;;;;31.27;16.00;;;;;;;;;;5067521;28;20067;-82
2022/11/28 11:07:30;;;;;;;26.83;14.73;;;;;;;;;;5047904;28;20044;-82
2022/11/28 11:10:13;;;;;;;29.38;16.25;;;;;;;;;;5079216;28;20028;-80
2022/11/28 11:12:38;;;;;;;30.70;16.20;;;;;;;;;;5054846;28;20020;-82
2022/11/28 11:15:13;;;;;;;33.67;17.10;;;;;;;;;;5052981;28;20078;-81
2022/11/28 11:17:39;;;;;;;32.33;17.73;;;;;;;;;;5074805;28;20032;-81
2022/11/28 11:20:23;;;;;;;30.83;17.30;;;;;;;;;;5071719;28;20046;-81
2022/11/28 11:23:15;;;;;;;32.92;17.45;;;;;;;;;;5048347;28;20039;-81
2022/11/28 11:25:44;;;;;;;35.75;18.83;;;;;;;;;;5071879;28;20133;-82
2022/11/28 11:28:10;;;;;;;34.08;18.45;;;;;;;;;;5055447;28;20394;-81
2022/11/28 11:30:37;;;;;;;;;;;;;;;;;;5035769;28;20028;-82
2022/11/28 11:33:03;;;;;;;37.88;18.42;;;;;;;;;;5063963;28;19930;-82
2022/11/28 11:35:30;;;;;;;38.20;18.65;;;;;;;;;;5073370;28;20029;-82
2022/11/28 11:38:14;;;;;;;35.05;19.10;;;;;;;;;;5049130;28;20044;-83
2022/11/28 11:40:39;;;;;;;37.25;19.17;;;;;;;;;;5085963;28;20244;-80
2022/11/28 11:43:06;;;;;;;34.90;18.55;;;;;;;;;;5084871;28;20114;-81
2022/11/28 11:45:33;;;;;;;33.55;17.67;;;;;;;;;;5072216;28;20173;-81
2022/11/28 11:47:58;;;;;;;35.17;17.80;;;;;;;;;;5073804;28;20032;-83
2022/11/28 11:50:25;;;;;;;32.13;17.40;;;;;;;;;;5071904;28;20072;-82
2022/11/28 11:53:04;;;;;;;36.60;17.55;;;;;;;;;;5091796;28;20028;-83
2022/11/28 11:55:30;;;;;;;38.53;18.35;;;;;;;;;;5091746;28;20032;-83
2022/11/28 11:57:56;;;;;;;36.00;17.83;;;;;;;;;;5078778;28;20077;-82
2022/11/28 12:00:22;;;;;;;33.28;17.83;;;;;;;;;;5073497;28;20174;-82
2022/11/28 12:02:49;;;;;;;34.65;17.10;;;;;;;;;;5064795;28;20110;-82
2022/11/28 12:05:22;;;;;;;39.15;18.75;;;;;;;;;;5063712;28;20065;-81
2022/11/28 12:07:58;;;;;;;34.53;16.88;;;;;;;;;;5056265;28;20036;-81
2022/11/28 12:10:25;;;;;;;34.95;17.55;;;;;;;;;;5054063;28;20060;-82
2022/11/28 12:12:50;;;;;;;32.80;17.25;;;;;;;;;;5042214;28;20032;-82
2022/11/28 12:15:19;;;;;;;35.53;18.30;;;;;;;;;;5041108;28;20037;-82
2022/11/28 12:17:53;;;;;;;32.50;16.92;;;;;;;;;;5070995;28;20037;-82
2022/11/28 12:20:37;;;;;;;36.65;18.02;;;;;;;;;;5068870;28;20423;-83
2022/11/28 12:23:09;;;;;;;36.17;18.05;;;;;;;;;;5035749;28;20044;-82
2022/11/28 12:25:53;;;;;;;32.85;17.33;;;;;;;;;;5046561;28;20033;-84
2022/11/28 12:28:36;;;;;;;35.10;17.48;;;;;;;;;;5063997;28;20032;-82
2022/11/28 12:31:08;;;;;;;41.75;18.90;;;;;;;;;;5051428;28;20039;-81
2022/11/28 12:33:40;;;;;;;33.72;17.98;;;;;;;;;;5039456;28;20083;-82
2022/11/28 12:36:07;;;;;;;38.17;19.27;;;;;;;;;;5042952;28;20037;-82
2022/11/28 12:38:35;;;;;;;39.58;18.42;;;;;;;;;;5029569;28;20029;-82
2022/11/28 12:41:01;;;;;;;35.30;19.55;;;;;;;;;;5061052;28;20032;-82
2022/11/28 12:43:34;;;;;;;40.28;19.17;;;;;;;;;;5019179;28;21655;-81
2022/11/28 12:46:04;;;;;;;36.95;18.33;;;;;;;;;;5028250;28;20135;-81
2022/11/28 12:48:49;;;;;;;36.50;18.30;;;;;;;;;;5036707;28;20111;-81
2022/11/28 12:51:14;;;;;;;35.05;18.42;;;;;;;;;;5065227;28;20144;-82
2022/11/28 12:53:43;;;;;;;38.10;18.55;;;;;;;;;;5051347;28;20112;-82
2022/11/28 12:56:21;;;;;;;37.20;18.13;;;;;;;;;;5020911;28;20476;-82
2022/11/28 12:58:57;;;;;;;38.15;18.98;;;;;;;;;;5051268;28;20045;-82
2022/11/28 13:01:38;;;;;;;38.40;19.23;;;;;;;;;;5047785;28;20434;-82
2022/11/28 13:04:12;;;;;;;40.58;20.48;;;;;;;;;;5078311;28;20048;-82
2022/11/28 13:06:38;;;;;;;42.70;21.67;;;;;;;;;;5040650;28;20037;-83
2022/11/28 13:09:16;;;;;;;45.85;20.42;;;;;;;;;;5063784;28;20043;-82
2022/11/28 13:11:44;;;;;;;44.53;21.35;;;;;;;;;;5080848;28;20036;-82
2022/11/28 13:14:31;;;;;;;44.35;20.77;;;;;;;;;;5068776;28;20060;-82
2022/11/28 13:17:06;;;;;;;41.90;21.38;;;;;;;;;;5070310;28;20525;-81
2022/11/28 13:19:40;;;;;;;41.78;20.65;;;;;;;;;;5089669;28;20035;-81
2022/11/28 13:22:06;;;;;;;41.45;20.88;;;;;;;;;;5052524;28;20190;-81
2022/11/28 13:24:36;;;;;;;46.10;21.55;;;;;;;;;;5090279;28;20548;-82
2022/11/28 13:27:08;;;;;;;44.88;23.73;;;;;;;;;;5069350;28;20033;-81
2022/11/28 13:29:39;;;;;;;46.20;24.38;;;;;;;;;;5090078;28;20031;-83
2022/11/28 13:32:16;;;;;;;43.30;22.33;;;;;;;;;;5056764;28;20047;-82
2022/11/28 13:34:42;;;;;;;47.22;23.17;;;;;;;;;;5069854;28;20024;-82
2022/11/28 13:37:14;;;;;;;45.15;22.15;;;;;;;;;;5070859;28;20028;-82
2022/11/28 13:39:48;;;;;;;42.80;21.02;;;;;;;;;;5067226;28;20510;-81
2022/11/28 13:42:29;;;;;;;46.90;21.90;;;;;;;;;;5084512;28;20032;-82
2022/11/28 13:44:59;;;;;;;38.33;21.08;;;;;;;;;;5081275;28;20492;-82
2022/11/28 13:47:26;;;;;;;39.40;20.67;;;;;;;;;;5078856;28;20128;-82
2022/11/28 13:50:12;;;;;;;40.17;20.02;;;;;;;;;;5060799;28;20039;-83
2022/11/28 13:52:41;;;;;;;42.03;20.75;;;;;;;;;;5060154;28;20123;-83
2022/11/28 13:55:26;;;;;;;35.53;20.13;;;;;;;;;;5060768;28;20025;-83
2022/11/28 13:57:52;;;;;;;37.40;19.15;;;;;;;;;;5077919;28;20512;-82
2022/11/28 14:00:17;;;;;;;42.20;21.55;;;;;;;;;;5060097;28;20062;-83
2022/11/28 14:02:43;;;;;;;;;;;;;;;;;;5076625;28;20158;-81
2022/11/28 14:05:34;;;;;;;39.55;20.20;;;;;;;;;;5062430;28;19924;-82
2022/11/28 14:08:00;;;;;;;42.70;21.27;;;;;;;;;;5070525;28;20083;-83
2022/11/28 14:10:44;;;;;;;40.75;21.20;;;;;;;;;;5082567;28;20036;-82
2022/11/28 14:13:13;;;;;;;40.03;21.30;;;;;;;;;;5049957;28;20051;-83
2022/11/28 14:15:57;;;;;;;40.67;20.70;;;;;;;;;;5084166;28;20013;-81
2022/11/28 14:18:46;;;;;;;39.67;20.45;;;;;;;;;;5069458;28;20062;-81
2022/11/28 14:21:18;;;;;;;39.08;20.35;;;;;;;;;;5048047;28;20048;-82
2022/11/28 14:23:52;;;;;;;38.33;20.92;;;;;;;;;;5073970;28;20028;-82
2022/11/28 14:26:38;;;;;;;36.03;20.27;;;;;;;;;;5051427;28;20039;-81
2022/11/28 14:29:06;;;;;;;40.85;20.92;;;;;;;;;;5062522;28;20058;-83
2022/11/28 14:31:43;;;;;;;39.53;20.80;;;;;;;;;;5067032;28;20024;-82